Time;durP1;ratioP1;P1;durP2;ratioP2;P2;SDS_P1;SDS_P2;PMS_P1;PMS_P2;Temp;Humidity;BMP_temperature;BMP_pressure;BME280_temperature;BME280_humidity;BME280_pressure;Samples;Min_cycle;Max_cycle;Signal;HPM_P1;HPM_P2
2021/12/13 00:01:38;;;;;;;40.20;38.00;;;;;;;20.58;49.11;102322.22;5006346;28;20637;-86
2021/12/13 00:04:20;;;;;;;38.85;36.85;;;;;;;20.57;49.14;102323.31;5011497;28;20033;-87
2021/12/13 00:06:52;;;;;;;39.42;37.22;;;;;;;20.58;49.10;102324.16;5006290;28;20125;-86
2021/12/13 00:09:23;;;;;;;37.97;35.97;;;;;;;20.58;49.16;102321.41;5007648;28;20050;-86
2021/12/13 00:11:55;;;;;;;40.17;37.88;;;;;;;20.58;49.01;102324.16;5010034;28;20033;-86
2021/12/13 00:14:24;;;;;;;38.72;36.63;;;;;;;20.58;49.05;102326.91;5011225;28;20478;-86
2021/12/13 00:17:00;;;;;;;40.53;38.33;;;;;;;20.58;49.30;102318.66;5008202;28;20083;-87
2021/12/13 00:19:50;;;;;;;39.42;37.42;;;;;;;20.57;49.24;102328.81;5007478;28;20491;-87
2021/12/13 00:22:24;;;;;;;38.08;36.17;;;;;;;20.57;49.28;102328.00;5010369;28;20049;-86
2021/12/13 00:24:52;;;;;;;39.72;37.63;;;;;;;20.57;49.40;102328.81;5010636;28;20033;-86
2021/12/13 00:27:26;;;;;;;38.05;36.05;;;;;;;20.56;49.15;102329.91;5002261;28;20073;-86
2021/12/13 00:30:36;;;;;;;40.17;37.97;;;;;;;20.57;49.23;102328.81;5001890;28;20121;-87
2021/12/13 00:33:35;;;;;;;38.88;36.65;;;;;;;20.56;48.96;102321.66;5019810;28;20046;-86
2021/12/13 00:36:11;;;;;;;37.97;35.92;;;;;;;20.56;49.04;102331.81;5003555;28;20068;-87
2021/12/13 00:38:44;;;;;;;37.63;35.63;;;;;;;20.56;48.98;102329.06;5012143;28;20040;-86
2021/12/13 00:41:16;;;;;;;39.70;37.60;;;;;;;20.56;49.27;102334.56;5001100;28;20034;-87
2021/12/13 00:43:49;;;;;;;39.60;37.42;;;;;;;20.55;49.08;102332.94;5006599;28;20030;-87
2021/12/13 00:46:18;;;;;;;38.78;36.63;;;;;;;20.55;49.34;102336.50;5002988;28;20058;-87
2021/12/13 00:48:48;;;;;;;39.50;37.35;;;;;;;20.55;48.95;102342.00;5012321;28;20546;-87
2021/12/13 00:51:33;;;;;;;38.33;36.25;;;;;;;20.55;49.05;102342.00;5003118;28;20044;-87
2021/12/13 00:54:09;;;;;;;38.95;36.72;;;;;;;20.55;49.09;102342.00;5006056;28;20403;-86
2021/12/13 00:57:07;;;;;;;36.72;34.83;;;;;;;20.55;49.27;102347.47;4992368;28;20125;-87
2021/12/13 01:00:03;;;;;;;38.35;36.17;;;;;;;20.55;49.12;102352.16;4999280;28;20466;-87
2021/12/13 01:02:51;;;;;;;37.20;35.28;;;;;;;20.54;49.00;102351.31;5000066;28;20097;-86
2021/12/13 01:05:35;;;;;;;39.35;37.13;;;;;;;20.53;48.80;102353.19;4998982;28;20034;-86
2021/12/13 01:08:13;;;;;;;39.60;37.53;;;;;;;20.53;48.64;102352.38;4993021;28;20125;-87
2021/12/13 01:10:39;;;;;;;39.13;36.80;;;;;;;20.52;49.08;102351.56;4995396;28;20065;-86
2021/12/13 01:13:22;;;;;;;39.28;37.20;;;;;;;20.53;48.56;102344.13;5005865;28;20069;-86
2021/12/13 01:16:10;;;;;;;38.53;36.53;;;;;;;20.53;48.77;102347.69;5000284;28;20038;-86
2021/12/13 01:19:34;;;;;;;37.67;35.67;;;;;;;20.51;48.75;102349.91;4999325;28;20068;-86
2021/12/13 01:21:55;;;;;;;36.75;34.85;;;;;;;20.52;48.49;102353.47;5009426;28;20050;-86
2021/12/13 01:24:52;;;;;;;37.90;36.00;;;;;;;20.52;49.16;102350.75;5006868;28;20045;-87
2021/12/13 01:27:08;;;;;;;;;;;;;;;20.48;48.64;102350.44;4993048;28;20042;-86
2021/12/13 01:29:35;;;;;;;38.50;36.60;;;;;;;20.50;48.80;102358.41;5007044;28;19914;-87
2021/12/13 01:32:07;;;;;;;37.17;35.03;;;;;;;20.49;48.73;102357.59;5010131;28;20478;-87
2021/12/13 01:34:35;;;;;;;38.03;36.13;;;;;;;20.50;48.51;102367.47;5008755;28;20045;-86
2021/12/13 01:37:13;;;;;;;38.20;36.13;;;;;;;20.50;48.46;102366.66;5007365;28;20541;-87
2021/12/13 01:39:44;;;;;;;36.35;34.45;;;;;;;20.50;48.51;102372.13;5007388;28;20037;-87
2021/12/13 01:42:15;;;;;;;36.88;34.97;;;;;;;20.49;48.98;102378.75;5010555;28;20038;-87
2021/12/13 01:44:44;;;;;;;37.85;35.83;;;;;;;20.50;48.76;102383.13;5010186;28;20037;-87
2021/12/13 01:47:15;;;;;;;38.92;36.63;;;;;;;20.50;48.63;102378.44;5006355;28;20410;-87
2021/12/13 01:49:44;;;;;;;38.95;36.95;;;;;;;20.51;48.56;102379.25;5009928;28;20037;-86
2021/12/13 01:52:23;;;;;;;37.47;35.58;;;;;;;20.50;48.58;102372.97;5009148;28;20635;-87
2021/12/13 01:54:49;;;;;;;38.80;36.83;;;;;;;20.49;48.67;102365.00;5000707;28;20072;-86
2021/12/13 02:00:08;;;;;;;37.85;35.90;;;;;;;20.49;48.82;102371.31;4998292;28;20137;-87
2021/12/13 02:02:41;;;;;;;38.15;36.17;;;;;;;20.50;48.75;102372.97;5002913;28;20066;-87
2021/12/13 02:05:15;;;;;;;38.30;36.33;;;;;;;20.49;48.34;102368.56;4998401;28;20486;-87
2021/12/13 02:08:07;;;;;;;38.72;36.53;;;;;;;20.49;48.76;102373.25;5008673;28;20045;-86
2021/12/13 02:10:46;;;;;;;37.42;35.53;;;;;;;20.48;48.71;102369.66;5010091;28;20029;-87
2021/12/13 02:13:24;;;;;;;38.40;36.45;;;;;;;20.48;48.44;102369.66;5009076;28;20038;-86
2021/12/13 02:18:41;;;;;;;38.63;36.15;;;;;;;20.48;48.79;102366.91;4995081;28;20044;-88
2021/12/13 02:21:18;;;;;;;38.92;36.92;;;;;;;20.48;48.66;102374.31;5008383;28;20026;-87
2021/12/13 02:23:49;;;;;;;37.35;35.45;;;;;;;20.47;48.50;102365.28;5008158;28;20434;-87
2021/12/13 02:26:15;;;;;;;37.72;35.63;;;;;;;20.47;48.55;102368.00;4996816;28;20083;-87
2021/12/13 02:28:43;;;;;;;38.00;36.10;;;;;;;20.47;48.67;102370.75;5010581;28;20041;-87
2021/12/13 02:31:19;;;;;;;39.85;37.75;;;;;;;20.47;48.66;102369.94;5008009;28;20112;-88
2021/12/13 02:33:54;;;;;;;38.05;36.05;;;;;;;20.47;48.27;102380.91;4998250;28;20034;-88
2021/12/13 02:36:26;;;;;;;37.78;35.65;;;;;;;20.47;48.46;102380.91;4997179;28;20034;-87
2021/12/13 02:38:56;;;;;;;38.42;36.42;;;;;;;20.47;48.47;102380.91;4994851;28;20061;-87
2021/12/13 02:41:25;;;;;;;37.65;35.72;;;;;;;20.45;48.42;102378.44;5001544;28;20038;-87
2021/12/13 02:43:55;;;;;;;37.90;35.95;;;;;;;20.45;48.49;102383.91;4995894;28;20038;-87
2021/12/13 02:46:21;;;;;;;38.60;36.60;;;;;;;20.45;48.35;102386.66;5006198;28;20037;-87
2021/12/13 02:48:57;;;;;;;37.65;35.65;;;;;;;20.46;48.40;102385.59;4994019;28;20050;-86
2021/12/13 02:51:32;;;;;;;37.92;35.92;;;;;;;20.45;48.00;102389.41;4996319;28;20034;-87
2021/12/13 02:54:08;;;;;;;37.88;35.80;;;;;;;20.45;47.99;102385.84;5005128;28;20034;-88
2021/12/13 02:57:11;;;;;;;37.58;35.55;;;;;;;20.44;48.19;102382.28;5001228;28;20044;-86
2021/12/13 02:59:39;;;;;;;36.92;35.03;;;;;;;20.43;48.36;102382.53;4995121;28;20042;-87
2021/12/13 03:02:23;;;;;;;38.95;36.75;;;;;;;20.43;48.05;102386.09;5006530;28;20104;-85
2021/12/13 03:04:50;;;;;;;38.17;36.28;;;;;;;20.43;48.30;102379.78;5000684;28;20022;-85
2021/12/13 03:07:39;;;;;;;38.75;36.75;;;;;;;20.42;48.00;102384.47;5001290;28;20073;-86
2021/12/13 03:10:12;;;;;;;39.22;37.13;;;;;;;20.42;48.05;102380.91;5007296;28;20088;-87
2021/12/13 03:12:38;;;;;;;37.60;35.67;;;;;;;20.42;47.91;102380.91;4995362;28;20117;-86
2021/12/13 03:15:10;;;;;;;38.58;36.55;;;;;;;20.41;48.06;102376.50;5003404;28;20121;-86
2021/12/13 03:17:44;;;;;;;37.58;35.58;;;;;;;20.41;47.86;102380.09;5007952;28;20034;-86
2021/12/13 03:20:18;;;;;;;38.42;36.53;;;;;;;20.42;48.05;102391.88;5002408;28;20120;-86
2021/12/13 03:23:21;;;;;;;38.50;36.47;;;;;;;20.40;47.85;102394.88;5012232;28;20066;-86
2021/12/13 03:25:58;;;;;;;39.33;37.03;;;;;;;20.40;48.10;102389.41;5010417;28;20057;-86
2021/12/13 03:28:43;;;;;;;37.90;35.80;;;;;;;20.39;48.07;102382.28;5004870;28;20120;-86
2021/12/13 03:31:12;;;;;;;39.15;36.95;;;;;;;20.39;47.99;102379.53;4998683;28;20025;-87
2021/12/13 03:33:54;;;;;;;38.13;36.08;;;;;;;20.39;47.70;102381.44;5012988;28;20485;-87
2021/12/13 03:36:44;;;;;;;37.75;35.80;;;;;;;20.38;47.65;102380.59;5009480;28;20034;-86
2021/12/13 03:39:16;;;;;;;38.88;36.80;;;;;;;20.39;48.01;102375.97;5004142;28;20085;-86
2021/12/13 03:41:46;;;;;;;36.63;34.53;;;;;;;20.38;47.81;102386.09;5009154;28;20044;-87
2021/12/13 03:44:17;;;;;;;39.00;36.80;;;;;;;20.38;47.57;102388.00;5001255;28;20108;-87
2021/12/13 03:46:45;;;;;;;36.83;34.88;;;;;;;20.38;47.74;102390.75;5010575;28;20030;-87
2021/12/13 03:49:11;;;;;;;39.42;37.22;;;;;;;20.37;47.66;102391.88;5007070;28;20486;-86
2021/12/13 03:51:41;;;;;;;38.28;36.20;;;;;;;20.37;47.87;102384.44;4998311;28;20042;-85
2021/12/13 03:54:11;;;;;;;38.80;36.70;;;;;;;20.37;48.00;102386.38;5005400;28;20064;-86
2021/12/13 03:56:42;;;;;;;37.75;35.72;;;;;;;20.37;47.59;102389.94;5010189;28;20038;-86
2021/12/13 03:59:13;;;;;;;40.80;38.60;;;;;;;20.38;47.44;102388.00;5011345;28;20030;-86
2021/12/13 04:01:53;;;;;;;40.60;38.35;;;;;;;20.36;47.40;102388.31;5003251;28;20116;-86
2021/12/13 04:04:42;;;;;;;38.85;36.65;;;;;;;20.36;47.58;102379.22;5004685;28;20038;-87
2021/12/13 04:07:13;;;;;;;39.60;37.50;;;;;;;20.35;47.80;102377.59;5000723;28;20034;-86
2021/12/13 04:09:41;;;;;;;38.35;36.38;;;;;;;20.34;47.27;102374.03;5011094;28;20636;-86
2021/12/13 04:12:07;;;;;;;37.47;35.47;;;;;;;20.34;47.38;102384.19;5013346;28;20057;-86
2021/12/13 04:14:40;;;;;;;38.33;35.75;;;;;;;20.35;47.28;102380.31;5012344;28;20116;-86
2021/12/13 04:17:33;;;;;;;39.85;37.55;;;;;;;20.34;47.42;102379.50;4994018;28;20062;-86
2021/12/13 04:20:00;;;;;;;37.28;35.35;;;;;;;20.32;47.36;102385.25;5008793;28;20034;-86
2021/12/13 04:22:29;;;;;;;38.70;36.70;;;;;;;20.33;47.47;102388.81;5007581;28;20031;-87
2021/12/13 04:25:02;;;;;;;38.63;36.42;;;;;;;20.32;47.12;102387.19;5000629;28;20044;-86
2021/12/13 04:27:32;;;;;;;38.53;36.35;;;;;;;20.32;47.37;102387.19;5000783;28;20173;-86
2021/12/13 04:30:06;;;;;;;37.55;35.55;;;;;;;20.31;47.12;102386.34;5011179;28;20029;-86
2021/12/13 04:32:36;;;;;;;37.80;35.80;;;;;;;20.31;47.12;102394.59;5002198;28;20039;-87
2021/12/13 04:35:06;;;;;;;40.80;38.60;;;;;;;20.31;47.30;102394.59;5009719;28;20084;-87
2021/12/13 04:37:36;;;;;;;37.83;35.90;;;;;;;20.31;47.19;102394.59;5004844;28;20122;-86
2021/12/13 04:40:08;;;;;;;39.80;37.60;;;;;;;20.31;47.08;102388.28;5005768;28;20037;-86
2021/12/13 04:42:33;;;;;;;38.67;36.47;;;;;;;20.31;47.32;102391.03;5009877;28;20044;-86
2021/12/13 04:45:06;;;;;;;39.30;37.13;;;;;;;20.30;47.18;102387.44;5009771;28;20041;-84
2021/12/13 04:47:52;;;;;;;37.67;35.55;;;;;;;20.29;47.00;102387.72;4995346;28;20038;-86
2021/12/13 04:50:41;;;;;;;38.95;36.85;;;;;;;20.29;47.00;102394.03;5009315;28;20041;-86
2021/12/13 04:53:07;;;;;;;38.90;36.80;;;;;;;20.29;47.51;102391.28;5002447;28;20137;-88
2021/12/13 04:55:37;;;;;;;40.60;38.40;;;;;;;20.29;47.20;102390.47;4996477;28;20113;-87
2021/12/13 04:58:09;;;;;;;40.03;37.97;;;;;;;20.29;46.88;102391.28;5007675;28;20125;-86
2021/12/13 05:00:39;;;;;;;38.80;36.78;;;;;;;20.29;47.21;102385.78;5003968;28;20363;-87
2021/12/13 05:03:07;;;;;;;40.80;38.42;;;;;;;20.28;47.13;102380.56;5010080;28;20065;-85
2021/12/13 05:05:35;;;;;;;38.30;36.17;;;;;;;20.28;47.09;102386.06;5010307;28;20108;-86
2021/12/13 05:08:05;;;;;;;37.85;35.85;;;;;;;20.28;46.94;102394.28;4997763;28;20479;-85
2021/12/13 05:10:31;;;;;;;40.15;38.05;;;;;;;20.28;47.36;102386.88;5002270;28;20056;-87
2021/12/13 05:13:05;;;;;;;37.85;35.83;;;;;;;20.28;47.15;102399.78;5008929;28;20129;-86
2021/12/13 05:15:31;;;;;;;37.88;35.78;;;;;;;20.27;46.99;102398.94;5006642;28;20030;-86
2021/12/13 05:18:02;;;;;;;38.38;36.28;;;;;;;20.27;47.26;102400.88;5011593;28;20466;-86
2021/12/13 05:20:34;;;;;;;38.63;36.53;;;;;;;20.27;47.13;102400.88;5004174;28;20040;-87
2021/12/13 05:23:11;;;;;;;39.13;37.03;;;;;;;20.27;46.87;102401.69;5011237;28;20056;-87
2021/12/13 05:25:41;;;;;;;38.10;36.10;;;;;;;20.27;46.79;102395.38;5006350;28;20042;-87
2021/12/13 05:28:23;;;;;;;37.60;35.60;;;;;;;20.27;46.72;102395.38;4999232;28;20467;-86
2021/12/13 05:31:01;;;;;;;37.38;35.40;;;;;;;20.25;46.84;102390.16;5010157;28;20077;-86
2021/12/13 05:33:31;;;;;;;37.23;35.20;;;;;;;20.25;47.04;102394.81;5010066;28;20500;-87
2021/12/13 05:36:00;;;;;;;38.08;36.03;;;;;;;20.25;46.76;102392.09;5008507;28;20116;-87
2021/12/13 05:38:28;;;;;;;38.05;36.05;;;;;;;20.25;46.99;102397.56;5006402;28;20034;-86
2021/12/13 05:40:54;;;;;;;37.60;35.70;;;;;;;20.25;46.76;102389.34;4997399;28;20030;-86
2021/12/13 05:43:36;;;;;;;38.65;36.53;;;;;;;20.24;46.71;102391.25;4990893;28;20030;-86
2021/12/13 05:46:06;;;;;;;36.10;34.10;;;;;;;20.24;46.89;102385.78;5001920;28;20053;-86
2021/12/13 05:48:34;;;;;;;38.65;36.60;;;;;;;20.23;46.80;102386.84;5007100;28;20041;-87
2021/12/13 05:51:06;;;;;;;36.72;34.72;;;;;;;20.23;47.16;102395.09;5008619;28;20057;-88
2021/12/13 05:53:44;;;;;;;37.42;35.45;;;;;;;20.23;46.61;102397.81;4995409;28;20065;-86
2021/12/13 05:56:15;;;;;;;39.20;37.00;;;;;;;20.23;46.85;102397.81;5001080;28;20537;-86
2021/12/13 05:58:43;;;;;;;37.97;35.88;;;;;;;20.23;47.09;102391.53;4999057;28;20045;-87
2021/12/13 06:01:37;;;;;;;37.42;35.47;;;;;;;20.23;46.75;102394.25;5007409;28;20493;-87
2021/12/13 06:04:06;;;;;;;37.13;35.20;;;;;;;20.22;46.59;102395.38;5003396;28;20034;-86
2021/12/13 06:06:33;;;;;;;37.92;35.83;;;;;;;20.22;46.99;102395.38;4999309;28;20054;-86
2021/12/13 06:09:00;;;;;;;36.80;34.80;;;;;;;20.21;46.95;102388.22;5008111;28;20124;-86
2021/12/13 06:11:32;;;;;;;37.67;35.67;;;;;;;20.22;46.98;102403.59;5008692;28;20244;-86
2021/12/13 06:14:15;;;;;;;36.65;34.78;;;;;;;20.21;46.86;102402.78;5009150;28;20421;-85
2021/12/13 06:16:48;;;;;;;35.75;33.85;;;;;;;20.20;46.75;102401.09;5039399;28;20129;-85
2021/12/13 06:19:53;;;;;;;39.13;37.03;;;;;;;20.19;46.72;102404.97;5010134;28;20034;-85
2021/12/13 06:22:22;;;;;;;38.05;36.05;;;;;;;20.19;46.59;102406.88;4998850;28;20577;-86
2021/12/13 06:24:50;;;;;;;37.20;35.22;;;;;;;20.19;46.58;102399.47;4998219;28;20053;-87
2021/12/13 06:27:40;;;;;;;38.53;36.42;;;;;;;20.19;46.94;102406.88;5005569;28;20034;-87
2021/12/13 06:30:09;;;;;;;37.20;35.30;;;;;;;20.18;46.48;102410.69;5002675;28;20148;-88
2021/12/13 06:32:39;;;;;;;38.05;36.15;;;;;;;20.19;46.77;102413.19;5008816;28;20045;-87
2021/12/13 06:35:33;;;;;;;37.40;35.50;;;;;;;20.18;47.05;102416.19;5005965;28;20561;-84
2021/12/13 06:38:20;;;;;;;35.50;33.63;;;;;;;20.17;46.77;102420.84;5004196;28;20100;-85
2021/12/13 06:40:56;;;;;;;38.65;36.60;;;;;;;20.17;46.65;102418.13;4997096;28;20529;-84
2021/12/13 06:43:52;;;;;;;40.03;37.72;;;;;;;20.16;46.53;102418.38;5009423;28;20066;-84
2021/12/13 06:46:23;;;;;;;37.38;35.38;;;;;;;20.16;46.75;102424.72;5006298;28;20054;-85
2021/12/13 06:49:15;;;;;;;37.20;35.30;;;;;;;20.16;46.89;102427.44;5005188;28;20032;-91
2021/12/13 06:52:06;;;;;;;48.17;43.15;;;;;;;20.16;47.19;102426.59;5002731;28;20034;-82
2021/12/13 06:54:40;;;;;;;44.33;39.67;;;;;;;20.16;47.65;102427.44;4998589;28;20109;-83
2021/12/13 06:57:21;;;;;;;46.50;41.97;;;;;;;20.17;47.90;102429.09;5009518;28;20033;-84
2021/12/13 07:00:13;;;;;;;46.97;42.47;;;;;;;20.17;47.71;102428.28;5003333;28;20041;-83
2021/12/13 07:02:41;;;;;;;41.80;37.88;;;;;;;20.17;47.63;102434.56;5006978;28;20041;-84
2021/12/13 07:05:13;;;;;;;41.13;37.43;;;;;;;20.16;47.45;102435.69;5006739;28;20065;-80
2021/12/13 07:08:02;;;;;;;41.67;37.85;;;;;;;20.17;47.75;102422.78;5013296;28;20280;-81
2021/12/13 07:10:57;;;;;;;40.95;37.78;;;;;;;20.16;47.64;102430.19;5003627;28;20054;-82
2021/12/13 07:13:40;;;;;;;40.67;37.80;;;;;;;20.17;47.51;102436.50;4994740;28;20046;-82
2021/12/13 07:16:15;;;;;;;41.17;38.30;;;;;;;20.16;47.52;102429.34;5010646;28;20129;-82
2021/12/13 07:18:50;;;;;;;39.83;36.97;;;;;;;20.16;47.47;102429.34;5001069;28;20486;-83
2021/12/13 07:21:22;;;;;;;38.92;36.25;;;;;;;20.16;47.49;102437.56;5006497;28;20033;-82
2021/12/13 07:24:05;;;;;;;37.65;35.03;;;;;;;20.16;47.26;102443.06;5002565;28;20129;-83
2021/12/13 07:26:38;;;;;;;39.95;37.08;;;;;;;20.15;47.47;102444.97;5015238;28;20072;-82
2021/12/13 07:29:31;;;;;;;38.10;35.55;;;;;;;20.15;47.07;102450.47;5009572;28;20029;-81
2021/12/13 07:32:11;;;;;;;37.15;34.85;;;;;;;20.16;47.34;102454.03;5006807;28;20041;-79
2021/12/13 07:34:55;;;;;;;39.15;36.60;;;;;;;20.16;47.33;102445.81;5007789;28;20045;-78
2021/12/13 07:37:39;;;;;;;40.70;37.95;;;;;;;20.16;47.48;102448.53;5010617;28;20034;-79
2021/12/13 07:40:25;;;;;;;40.58;38.20;;;;;;;20.16;47.34;102445.81;5009024;28;20540;-80
2021/12/13 07:42:59;;;;;;;40.80;37.50;;;;;;;20.15;47.20;102442.25;5006312;28;20022;-82
2021/12/13 07:45:29;;;;;;;37.80;35.60;;;;;;;20.16;47.46;102445.81;5009591;28;20029;-82
2021/12/13 07:47:57;;;;;;;38.75;36.35;;;;;;;20.16;47.88;102448.53;5008137;28;20030;-83
2021/12/13 07:50:23;;;;;;;38.07;35.57;;;;;;;20.17;47.97;102456.53;5005074;28;20045;-83
2021/12/13 07:52:58;;;;;;;38.08;35.35;;;;;;;20.17;48.47;102461.19;5006924;28;20034;-83
2021/12/13 07:55:28;;;;;;;39.67;37.17;;;;;;;20.18;48.37;102460.09;5005810;28;20156;-81
2021/12/13 07:57:55;;;;;;;38.42;36.10;;;;;;;20.18;48.42;102460.91;5005240;28;20034;-80
2021/12/13 08:00:25;;;;;;;39.45;36.88;;;;;;;20.19;48.52;102459.84;4990582;28;20031;-82
2021/12/13 08:03:00;;;;;;;38.28;35.97;;;;;;;20.20;48.73;102464.22;5004430;28;20041;-83
2021/12/13 08:05:32;;;;;;;41.90;38.95;;;;;;;20.21;48.56;102467.78;5007138;28;20061;-82
2021/12/13 08:08:02;;;;;;;39.42;36.92;;;;;;;20.21;49.08;102463.16;5003761;28;20041;-82
2021/12/13 08:10:39;;;;;;;39.38;36.90;;;;;;;20.22;49.03;102466.72;5007212;28;20460;-82
2021/12/13 08:13:10;;;;;;;38.55;35.67;;;;;;;20.23;48.94;102468.34;5003632;28;20037;-84
2021/12/13 08:15:40;;;;;;;39.50;37.05;;;;;;;20.24;49.11;102475.50;5009502;28;20033;-84
2021/12/13 08:18:32;;;;;;;40.35;37.75;;;;;;;20.23;49.07;102480.13;5007433;28;20038;-84
2021/12/13 08:21:05;;;;;;;36.67;34.17;;;;;;;20.25;49.03;102477.97;4999375;28;20045;-85
2021/12/13 08:23:52;;;;;;;40.63;38.28;;;;;;;20.24;49.06;102479.06;5008415;28;20537;-85
2021/12/13 08:26:44;;;;;;;38.38;36.08;;;;;;;20.25;48.78;102475.22;4995799;28;20224;-84
2021/12/13 08:29:27;;;;;;;37.33;35.08;;;;;;;20.26;48.73;102479.63;5005413;28;20096;-86
2021/12/13 08:31:56;;;;;;;38.38;36.17;;;;;;;20.27;48.87;102477.72;5007698;28;20044;-86
2021/12/13 08:34:32;;;;;;;38.05;35.65;;;;;;;20.28;48.80;102473.84;5008223;28;20045;-83
2021/12/13 08:37:00;;;;;;;38.88;36.38;;;;;;;20.29;48.78;102473.59;5003841;28;20030;-84
2021/12/13 08:39:36;;;;;;;38.00;35.75;;;;;;;20.31;48.87;102478.84;5007278;28;20137;-82
2021/12/13 08:42:09;;;;;;;40.20;37.83;;;;;;;20.31;49.02;102482.41;5004073;28;20072;-85
2021/12/13 08:44:41;;;;;;;38.80;36.42;;;;;;;20.31;48.84;102474.19;5005341;28;20454;-86
2021/12/13 08:47:14;;;;;;;36.95;34.88;;;;;;;20.34;48.72;102474.75;5002102;28;20026;-85
2021/12/13 08:49:52;;;;;;;40.90;38.65;;;;;;;20.35;48.83;102476.38;5000500;28;20613;-88
2021/12/13 08:52:24;;;;;;;37.33;35.15;;;;;;;20.37;48.59;102479.69;5003328;28;20061;-82
2021/12/13 08:55:11;;;;;;;39.90;37.72;;;;;;;20.38;48.52;102489.56;5002474;28;20478;-82
2021/12/13 08:57:53;;;;;;;40.47;37.85;;;;;;;20.39;48.47;102483.00;4999611;28;20087;-82
2021/12/13 09:00:22;;;;;;;37.80;35.80;;;;;;;20.39;48.70;102489.31;5005543;28;20385;-82
2021/12/13 09:03:10;;;;;;;37.78;35.75;;;;;;;20.41;48.38;102486.28;5002275;28;20549;-82
2021/12/13 09:05:40;;;;;;;42.05;39.65;;;;;;;20.41;48.59;102481.63;5001878;28;20140;-84
2021/12/13 09:08:13;;;;;;;39.92;37.53;;;;;;;20.43;48.48;102484.91;5005393;28;20038;-83
2021/12/13 09:10:48;;;;;;;41.67;39.35;;;;;;;20.43;48.21;102487.66;5000824;28;20234;-84
2021/12/13 09:13:17;;;;;;;40.17;38.08;;;;;;;20.44;48.49;102489.34;5005478;28;20046;-84
2021/12/13 09:15:46;;;;;;;38.97;36.95;;;;;;;20.46;48.39;102494.53;5003816;28;20073;-83
2021/12/13 09:18:17;;;;;;;;;;;;;;;20.44;48.44;102502.25;5004618;28;20750;-82
2021/12/13 09:20:47;;;;;;;37.88;35.55;;;;;;;20.47;48.17;102496.22;5003236;28;19928;-84
2021/12/13 09:23:44;;;;;;;36.67;34.67;;;;;;;20.46;48.28;102498.13;5001302;28;20022;-82
2021/12/13 09:26:16;;;;;;;36.72;34.83;;;;;;;20.47;47.89;102493.47;5003592;28;20045;-83
2021/12/13 09:29:01;;;;;;;39.40;37.30;;;;;;;20.48;47.95;102498.66;5004606;28;20034;-84
2021/12/13 09:31:33;;;;;;;39.80;37.67;;;;;;;20.49;47.73;102507.75;5001452;28;20045;-83
2021/12/13 09:34:05;;;;;;;37.92;35.92;;;;;;;20.50;47.63;102514.88;5003878;28;20486;-85
2021/12/13 09:36:42;;;;;;;41.25;38.95;;;;;;;20.50;47.91;102518.44;5000720;28;20049;-84
2021/12/13 09:39:25;;;;;;;38.38;36.38;;;;;;;20.52;47.69;102530.00;4988788;28;20053;-87
2021/12/13 09:41:53;;;;;;;38.13;36.13;;;;;;;20.53;47.56;102534.38;5004836;28;20037;-86
2021/12/13 09:45:08;;;;;;;39.60;37.20;;;;;;;20.53;47.51;102530.81;5006022;28;20041;-87
2021/12/13 09:47:40;;;;;;;40.53;37.42;;;;;;;20.55;47.70;102536.91;5005007;28;20041;-87
2021/12/13 09:50:16;;;;;;;36.33;34.42;;;;;;;20.56;47.70;102552.28;5006959;28;20034;-86
2021/12/13 09:52:51;;;;;;;36.97;34.85;;;;;;;20.58;47.65;102560.25;5002433;28;20065;-84
2021/12/13 09:55:30;;;;;;;38.50;36.50;;;;;;;20.59;47.62;102556.41;5002949;28;20124;-82
2021/12/13 09:58:13;;;;;;;37.95;35.85;;;;;;;20.59;47.16;102562.75;5002822;28;20028;-84
2021/12/13 10:01:08;;;;;;;38.03;35.92;;;;;;;20.60;47.22;102555.31;5003240;28;20056;-83
2021/12/13 10:03:59;;;;;;;38.75;36.65;;;;;;;20.62;47.24;102564.13;5000744;28;20069;-84
2021/12/13 10:06:35;;;;;;;36.95;34.97;;;;;;;20.62;47.43;102562.19;5005065;28;20569;-86
2021/12/13 10:09:16;;;;;;;36.58;34.67;;;;;;;20.64;47.20;102565.50;5007139;28;20045;-87
2021/12/13 10:12:02;;;;;;;39.45;37.35;;;;;;;20.65;46.80;102556.16;5003990;28;20030;-89
2021/12/13 10:14:35;;;;;;;38.72;36.47;;;;;;;20.66;47.27;102557.84;4999725;28;20417;-86
2021/12/13 10:17:02;;;;;;;37.28;35.38;;;;;;;20.67;47.43;102553.16;5005501;28;20034;-84
2021/12/13 10:19:39;;;;;;;39.80;37.53;;;;;;;20.68;47.32;102558.38;5000483;28;20468;-82
2021/12/13 10:22:07;;;;;;;38.15;36.15;;;;;;;20.71;47.08;102551.53;5006857;28;20281;-83
2021/12/13 10:24:40;;;;;;;41.33;38.97;;;;;;;20.71;47.20;102552.38;5005459;28;20113;-82
2021/12/13 10:27:09;;;;;;;38.97;36.72;;;;;;;20.73;47.45;102552.91;5008080;28;20038;-87
2021/12/13 10:29:35;;;;;;;40.25;38.08;;;;;;;20.74;47.29;102551.84;5004511;28;20038;-87
2021/12/13 10:32:07;;;;;;;40.10;38.08;;;;;;;20.77;47.28;102544.97;4993885;28;20033;-88
2021/12/13 10:34:37;;;;;;;40.97;38.65;;;;;;;20.78;47.31;102557.59;5008272;28;20409;-89
2021/12/13 10:37:09;;;;;;;39.95;37.90;;;;;;;20.80;47.19;102554.59;5010473;28;20037;-84
2021/12/13 10:39:48;;;;;;;39.08;36.88;;;;;;;20.81;47.30;102551.56;5006670;28;21396;-81
2021/12/13 10:42:26;;;;;;;;;;;;;;;20.79;47.21;102551.03;5008619;28;20030;-83
2021/12/13 10:44:52;;;;;;;36.38;34.58;;;;;;;20.82;47.12;102552.41;5009941;28;20282;-85
2021/12/13 10:47:30;;;;;;;35.72;33.85;;;;;;;20.82;46.93;102553.25;5010025;28;20037;-87
2021/12/13 10:49:56;;;;;;;;;;;;;;;20.82;47.12;102552.41;5009536;28;20095;-86
2021/12/13 10:52:32;;;;;;;38.70;36.60;;;;;;;20.83;47.20;102548.56;5008145;28;20374;-85
2021/12/13 10:55:00;;;;;;;38.08;36.15;;;;;;;20.85;46.83;102549.13;5009599;28;20125;-85
2021/12/13 10:57:34;;;;;;;38.45;36.42;;;;;;;20.86;46.99;102550.78;5008844;28;20029;-88
2021/12/13 11:00:04;;;;;;;38.75;36.53;;;;;;;20.87;47.41;102549.69;5009837;28;20025;-83
2021/12/13 11:02:34;;;;;;;38.20;36.17;;;;;;;20.89;47.17;102548.34;5006951;28;20307;-85
2021/12/13 11:05:07;;;;;;;37.20;35.30;;;;;;;20.89;47.02;102544.72;5010764;28;20061;-83
2021/12/13 11:07:33;;;;;;;40.22;37.67;;;;;;;20.91;46.87;102545.31;5011322;28;20113;-83
2021/12/13 11:10:01;;;;;;;38.53;36.63;;;;;;;20.93;46.92;102537.63;5009178;28;20141;-85
2021/12/13 11:12:34;;;;;;;39.50;37.47;;;;;;;20.94;46.74;102539.25;5007309;28;20101;-84
2021/12/13 11:15:05;;;;;;;38.75;36.75;;;;;;;20.95;46.96;102527.19;5007581;28;20038;-83
2021/12/13 11:17:33;;;;;;;40.72;38.30;;;;;;;20.96;46.82;102523.34;5004717;28;20036;-84
2021/12/13 11:20:21;;;;;;;40.58;38.25;;;;;;;20.97;46.57;102525.00;5008582;28;20041;-80
2021/12/13 11:22:48;;;;;;;38.47;36.50;;;;;;;20.98;46.96;102517.59;5005615;28;20060;-84
2021/12/13 11:25:31;;;;;;;40.78;37.97;;;;;;;20.99;46.46;102508.25;5005332;28;20044;-85
2021/12/13 11:27:56;;;;;;;40.08;37.97;;;;;;;21.00;46.57;102516.22;5004714;28;20036;-86
2021/12/13 11:30:29;;;;;;;38.78;36.88;;;;;;;21.00;46.49;102516.22;5007106;28;20042;-85
2021/12/13 11:32:57;;;;;;;39.20;37.00;;;;;;;21.01;46.23;102517.84;5007125;28;20453;-85
2021/12/13 11:35:56;;;;;;;38.22;36.33;;;;;;;21.02;46.38;102516.78;5006905;28;20050;-85
2021/12/13 11:38:59;;;;;;;40.13;38.08;;;;;;;21.03;46.45;102517.59;5008192;28;20112;-86
2021/12/13 11:41:59;;;;;;;39.42;37.20;;;;;;;21.03;46.32;102523.09;5003155;28;20468;-86
2021/12/13 11:45:06;;;;;;;38.40;36.50;;;;;;;21.03;46.11;102526.66;5005194;28;20052;-85
2021/12/13 11:48:09;;;;;;;37.90;35.95;;;;;;;21.03;46.23;102532.16;4991654;28;20092;-86
2021/12/13 11:51:06;;;;;;;41.08;38.80;;;;;;;21.04;46.18;102527.47;5006622;28;20037;-85
2021/12/13 11:53:56;;;;;;;42.80;40.55;;;;;;;21.05;46.15;102515.41;5002760;28;20461;-85
2021/12/13 11:56:43;;;;;;;39.30;37.20;;;;;;;21.05;46.09;102524.47;5007735;28;20034;-83